Time;durP1;ratioP1;P1;durP2;ratioP2;P2;SDS_P1;SDS_P2;PMS_P1;PMS_P2;Temp;Humidity;BMP_temperature;BMP_pressure;BME280_temperature;BME280_humidity;BME280_pressure;Samples;Min_cycle;Max_cycle;Signal;HPM_P1;HPM_P2
2022/03/20 00:00:53;;;;;;;0.50;0.40;;;12.70;89.90;;;;;;5063237;28;20897;-58
2022/03/20 00:03:26;;;;;;;0.80;0.33;;;12.50;89.70;;;;;;5058031;28;20576;-58
2022/03/20 00:05:59;;;;;;;2.10;0.60;;;12.40;89.10;;;;;;5063195;28;20454;-58
2022/03/20 00:08:30;;;;;;;0.90;0.60;;;12.30;89.40;;;;;;5060841;28;20592;-58
2022/03/20 00:11:02;;;;;;;1.73;0.80;;;12.10;88.40;;;;;;5061930;28;20452;-58
2022/03/20 00:13:33;;;;;;;2.00;0.60;;;12.10;89.50;;;;;;5060654;28;20528;-58
2022/03/20 00:16:05;;;;;;;1.27;0.53;;;12.20;91.20;;;;;;5062658;28;20445;-58
2022/03/20 00:18:36;;;;;;;2.53;0.50;;;12.30;90.80;;;;;;5063495;28;20479;-58
2022/03/20 00:21:13;;;;;;;1.60;0.80;;;12.30;90.60;;;;;;5060388;28;20449;-59
2022/03/20 00:23:46;;;;;;;0.70;0.37;;;12.20;88.90;;;;;;5067103;28;20574;-61
2022/03/20 00:26:19;;;;;;;1.30;0.50;;;12.10;82.60;;;;;;5060641;28;20444;-59
2022/03/20 00:28:50;;;;;;;1.07;0.47;;;12.00;81.40;;;;;;5064691;28;20447;-59
2022/03/20 00:31:21;;;;;;;0.97;0.40;;;12.00;82.30;;;;;;5070390;28;20445;-59
2022/03/20 00:33:52;;;;;;;1.37;0.40;;;11.90;82.80;;;;;;5068528;28;20449;-60
2022/03/20 00:36:24;;;;;;;1.27;0.50;;;11.90;82.70;;;;;;5059528;28;20551;-59
2022/03/20 00:38:55;;;;;;;3.23;0.67;;;11.70;84.50;;;;;;5061093;28;21089;-59
2022/03/20 00:41:26;;;;;;;4.20;0.77;;;11.60;86.40;;;;;;5059260;28;20457;-59
2022/03/20 00:43:58;;;;;;;1.33;0.50;;;11.50;86.30;;;;;;5060998;28;20560;-59
2022/03/20 00:46:30;;;;;;;2.90;0.70;;;11.50;87.80;;;;;;5059048;28;20445;-58
2022/03/20 00:49:01;;;;;;;2.30;0.50;;;11.50;87.50;;;;;;5059708;28;20459;-57
2022/03/20 00:51:34;;;;;;;0.83;0.83;;;11.40;88.80;;;;;;5060905;28;20460;-60
2022/03/20 00:54:05;;;;;;;1.57;0.50;;;11.30;88.80;;;;;;5058480;28;20463;-57
2022/03/20 00:56:36;;;;;;;2.03;0.70;;;11.30;88.50;;;;;;5062236;28;20810;-58
2022/03/20 00:59:07;;;;;;;0.77;0.50;;;11.30;90.00;;;;;;5061220;28;20474;-57
2022/03/20 01:01:38;;;;;;;1.30;0.53;;;11.40;90.00;;;;;;5068172;28;20509;-57
2022/03/20 01:04:09;;;;;;;2.50;0.87;;;11.30;88.50;;;;;;5062260;28;20517;-56
2022/03/20 01:06:41;;;;;;;1.90;0.60;;;11.30;88.00;;;;;;5063376;28;20467;-57
2022/03/20 01:09:12;;;;;;;3.40;1.10;;;11.40;87.70;;;;;;5053302;28;20459;-57
2022/03/20 01:11:43;;;;;;;0.73;0.60;;;11.40;88.80;;;;;;5062051;28;20454;-57
2022/03/20 01:14:15;;;;;;;2.73;0.80;;;11.30;89.20;;;;;;5067542;28;20439;-59
2022/03/20 01:16:46;;;;;;;0.90;0.70;;;11.20;90.30;;;;;;5078175;28;20511;-58
2022/03/20 01:19:17;;;;;;;2.00;0.60;;;11.10;90.20;;;;;;5077625;28;20958;-58
2022/03/20 01:21:50;;;;;;;1.20;1.10;;;11.10;90.80;;;;;;5072713;28;20462;-61
2022/03/20 01:24:21;;;;;;;1.10;0.83;;;11.10;91.50;;;;;;5067591;28;20491;-63
2022/03/20 01:26:52;;;;;;;2.40;0.80;;;11.10;91.30;;;;;;5069736;28;20582;-59
2022/03/20 01:29:23;;;;;;;2.07;0.80;;;11.10;91.80;;;;;;5067515;28;20937;-61
2022/03/20 01:31:54;;;;;;;1.13;0.80;;;11.10;92.40;;;;;;5071465;28;20522;-62
2022/03/20 01:34:26;;;;;;;1.07;0.90;;;11.10;92.30;;;;;;5059180;28;20445;-63
2022/03/20 01:36:59;;;;;;;0.90;0.70;;;10.90;92.20;;;;;;5065136;28;20453;-61
2022/03/20 01:39:31;;;;;;;0.97;0.70;;;10.90;92.80;;;;;;5072867;28;20510;-61
2022/03/20 01:42:06;;;;;;;4.83;1.20;;;10.90;93.50;;;;;;5070535;28;20474;-62
2022/03/20 01:44:38;;;;;;;1.63;0.63;;;10.90;93.00;;;;;;5065673;28;20586;-60
2022/03/20 01:47:10;;;;;;;0.97;0.80;;;10.90;92.90;;;;;;5065131;28;20502;-61
2022/03/20 01:49:40;;;;;;;1.83;0.83;;;10.80;92.80;;;;;;5071141;28;20543;-62
2022/03/20 01:52:13;;;;;;;1.27;0.63;;;10.80;93.80;;;;;;5072520;28;20470;-62
2022/03/20 01:54:47;;;;;;;2.50;0.90;;;10.80;91.20;;;;;;5072529;28;20448;-62
2022/03/20 01:57:20;;;;;;;1.83;0.80;;;10.60;91.60;;;;;;5064816;28;20452;-62
2022/03/20 01:59:52;;;;;;;2.87;0.93;;;10.50;92.50;;;;;;5068400;28;20446;-66
2022/03/20 02:02:23;;;;;;;1.83;0.80;;;10.30;92.30;;;;;;5064900;28;20532;-61
2022/03/20 02:04:55;;;;;;;1.53;0.73;;;10.20;91.60;;;;;;5069502;28;20550;-63
2022/03/20 02:07:28;;;;;;;1.70;0.77;;;10.10;91.50;;;;;;5066683;28;20905;-56
2022/03/20 02:09:59;;;;;;;1.20;0.97;;;9.90;92.50;;;;;;5064066;28;20448;-59
2022/03/20 02:12:30;;;;;;;3.00;1.40;;;9.90;92.50;;;;;;5060928;28;20469;-59
2022/03/20 02:15:02;;;;;;;3.77;1.00;;;9.80;93.20;;;;;;5064365;28;20475;-59
2022/03/20 02:17:33;;;;;;;1.23;0.80;;;9.70;93.60;;;;;;5064106;28;20497;-59
2022/03/20 02:20:08;;;;;;;1.75;1.13;;;9.50;93.40;;;;;;5064268;28;20526;-59
2022/03/20 02:22:44;;;;;;;0.77;0.70;;;9.40;94.30;;;;;;5066742;28;20561;-59
2022/03/20 02:25:16;;;;;;;0.95;0.63;;;9.30;94.20;;;;;;5068722;28;20479;-59
2022/03/20 02:27:47;;;;;;;2.10;1.00;;;9.20;93.80;;;;;;5053219;28;20202;-57
2022/03/20 02:30:18;;;;;;;3.60;1.05;;;9.20;93.70;;;;;;5063410;28;20534;-58
2022/03/20 02:32:53;;;;;;;2.10;0.83;;;9.20;92.90;;;;;;5064063;28;20553;-56
2022/03/20 02:35:25;;;;;;;1.70;0.77;;;9.10;94.00;;;;;;5063480;28;20462;-57
2022/03/20 02:37:59;;;;;;;2.72;1.38;;;9.00;94.30;;;;;;5066365;28;20734;-57
2022/03/20 02:40:30;;;;;;;6.68;1.20;;;8.90;93.90;;;;;;5066421;28;21307;-58
2022/03/20 02:43:05;;;;;;;2.10;1.08;;;8.80;93.80;;;;;;5051587;28;20198;-55
2022/03/20 02:45:36;;;;;;;0.98;0.98;;;8.80;92.90;;;;;;5062484;28;20228;-57
2022/03/20 02:48:07;;;;;;;1.80;0.98;;;8.60;93.40;;;;;;5064002;28;20640;-58
2022/03/20 02:50:39;;;;;;;1.30;1.20;;;8.50;94.50;;;;;;5063927;28;20214;-58
2022/03/20 02:53:13;;;;;;;1.05;0.95;;;8.50;94.90;;;;;;5072230;28;20204;-58
2022/03/20 02:55:46;;;;;;;1.13;0.73;;;8.40;97.10;;;;;;5049997;28;20216;-59
2022/03/20 02:58:18;;;;;;;1.50;1.38;;;8.30;97.90;;;;;;5066180;28;20269;-58
2022/03/20 03:00:49;;;;;;;1.75;0.80;;;8.20;98.80;;;;;;5048957;28;20206;-58
2022/03/20 03:03:20;;;;;;;2.25;1.30;;;8.20;99.90;;;;;;5057792;28;20200;-57
2022/03/20 03:05:56;;;;;;;1.73;1.10;;;8.20;99.90;;;;;;5063519;28;20259;-59
2022/03/20 03:11:16;;;;;;;4.25;1.60;;;8.00;99.90;;;;;;5062702;28;20206;-57
2022/03/20 03:13:47;;;;;;;2.58;1.27;;;7.90;99.90;;;;;;5069853;28;20202;-58
2022/03/20 03:16:18;;;;;;;5.55;2.45;;;7.80;99.90;;;;;;5062274;28;20202;-58
2022/03/20 03:18:52;;;;;;;3.15;1.70;;;7.70;99.90;;;;;;5063614;28;20230;-59
2022/03/20 03:21:27;;;;;;;2.30;1.60;;;7.70;99.90;;;;;;5069226;28;20196;-58
2022/03/20 03:24:00;;;;;;;1.30;1.20;;;7.70;99.90;;;;;;5056128;28;20642;-57
2022/03/20 03:26:30;;;;;;;3.70;1.77;;;7.60;99.90;;;;;;5055729;28;20229;-58
2022/03/20 03:29:01;;;;;;;3.22;1.70;;;7.60;99.90;;;;;;5067210;28;20233;-61
2022/03/20 03:31:32;;;;;;;3.03;1.48;;;7.60;99.90;;;;;;5068719;28;20574;-57
2022/03/20 03:36:50;;;;;;;1.60;1.50;;;7.40;99.90;;;;;;5069797;28;20211;-55
2022/03/20 03:39:23;;;;;;;5.13;1.70;;;7.40;99.90;;;;;;5064558;28;20206;-57
2022/03/20 03:41:54;;;;;;;3.45;1.60;;;7.30;99.90;;;;;;5065953;28;20202;-57
2022/03/20 03:44:26;;;;;;;1.98;1.55;;;7.20;99.90;;;;;;5072037;28;20222;-58
2022/03/20 03:46:57;;;;;;;6.82;2.58;;;7.30;99.90;;;;;;5071987;28;20202;-58
2022/03/20 03:49:28;;;;;;;2.45;1.70;;;7.30;99.90;;;;;;5067315;28;20672;-59
2022/03/20 03:51:59;;;;;;;3.83;1.88;;;7.30;99.90;;;;;;5066632;28;20198;-56
2022/03/20 03:54:32;;;;;;;2.13;1.58;;;7.20;99.90;;;;;;5065327;28;20205;-58
2022/03/20 03:57:02;;;;;;;2.47;1.20;;;7.10;99.90;;;;;;5062966;28;20197;-56
2022/03/20 03:59:33;;;;;;;2.83;1.27;;;7.00;99.90;;;;;;5066557;28;20209;-57
2022/03/20 04:02:04;;;;;;;2.40;1.88;;;7.00;99.90;;;;;;5065748;28;20198;-55
2022/03/20 04:04:35;;;;;;;3.42;1.65;;;7.00;99.90;;;;;;5065303;28;20214;-58
2022/03/20 04:07:07;;;;;;;2.78;1.42;;;7.10;99.90;;;;;;5073573;28;20206;-56
2022/03/20 04:09:48;;;;;;;1.73;1.10;;;7.10;99.90;;;;;;5067733;28;20589;-56
2022/03/20 04:12:22;;;;;;;1.63;1.10;;;7.20;99.90;;;;;;5060572;28;20288;-56
2022/03/20 04:14:53;;;;;;;2.17;1.20;;;7.10;99.90;;;;;;5061742;28;20202;-55
2022/03/20 04:17:24;;;;;;;1.60;1.20;;;7.20;99.90;;;;;;5067683;28;20225;-55
2022/03/20 04:19:55;;;;;;;3.60;1.40;;;7.20;99.90;;;;;;5062532;28;20201;-56
2022/03/20 04:22:26;;;;;;;1.30;1.10;;;7.20;99.90;;;;;;5064323;28;21778;-57
2022/03/20 04:25:01;;;;;;;1.92;1.02;;;7.20;99.90;;;;;;5061602;28;20233;-56
2022/03/20 04:27:32;;;;;;;6.28;2.72;;;7.10;99.90;;;;;;5060755;28;20208;-56
2022/03/20 04:30:05;;;;;;;3.80;1.60;;;7.10;99.90;;;;;;5059822;28;20201;-57
2022/03/20 04:32:36;;;;;;;2.33;1.35;;;7.10;99.90;;;;;;5061468;28;20269;-57
2022/03/20 04:35:08;;;;;;;1.98;1.30;;;7.00;99.90;;;;;;5059118;28;20216;-56
2022/03/20 04:37:39;;;;;;;2.63;1.52;;;6.90;99.90;;;;;;5069975;28;20213;-54
2022/03/20 04:40:13;;;;;;;1.45;1.35;;;6.90;99.90;;;;;;5065279;28;20210;-56
2022/03/20 04:42:44;;;;;;;3.03;1.25;;;6.80;99.90;;;;;;5060817;28;20206;-56
2022/03/20 04:45:15;;;;;;;3.47;1.38;;;6.90;99.90;;;;;;5075752;28;20292;-58
2022/03/20 04:59:12;;;;;;;3.22;1.75;;;6.60;99.90;;;;;;5021119;28;20203;-55
2022/03/20 05:01:43;;;;;;;4.18;1.60;;;6.50;99.90;;;;;;5024256;28;20218;-57
2022/03/20 05:04:14;;;;;;;1.60;1.33;;;6.60;99.90;;;;;;5022214;28;20239;-56
2022/03/20 05:06:45;;;;;;;2.53;1.42;;;6.50;99.90;;;;;;5018094;28;20227;-56
2022/03/20 05:14:57;;;;;;;2.13;1.48;;;6.30;99.90;;;;;;5018428;28;20187;-56
2022/03/20 05:17:28;;;;;;;2.97;1.80;;;6.30;99.90;;;;;;5017266;28;20231;-56
2022/03/20 05:19:59;;;;;;;2.45;2.25;;;6.20;99.90;;;;;;5018465;28;20203;-54
2022/03/20 05:22:30;;;;;;;4.45;3.13;;;6.20;99.90;;;;;;5023821;28;20199;-56
2022/03/20 05:25:03;;;;;;;5.53;4.10;;;6.20;99.90;;;;;;5047923;28;20240;-55
2022/03/20 05:27:36;;;;;;;5.30;3.40;;;6.20;99.90;;;;;;5065820;28;20216;-52
2022/03/20 05:30:08;;;;;;;4.25;3.78;;;6.10;99.90;;;;;;5051673;28;20528;-56
2022/03/20 05:32:41;;;;;;;7.97;3.65;;;6.10;99.90;;;;;;5061547;28;20187;-57
2022/03/20 05:35:12;;;;;;;3.75;2.45;;;6.10;99.90;;;;;;5062360;28;20212;-56
2022/03/20 05:37:43;;;;;;;3.42;2.00;;;6.00;99.90;;;;;;5066224;28;20266;-55
2022/03/20 05:40:15;;;;;;;5.70;2.13;;;6.00;99.90;;;;;;5059520;28;20261;-55
2022/03/20 05:42:47;;;;;;;4.18;2.17;;;5.90;99.90;;;;;;5070107;28;20216;-55
2022/03/20 05:45:18;;;;;;;3.15;2.20;;;5.80;99.90;;;;;;5059132;28;20238;-53
2022/03/20 05:47:49;;;;;;;5.15;2.10;;;5.70;99.90;;;;;;5053766;28;20210;-56
2022/03/20 05:50:20;;;;;;;5.65;2.78;;;5.70;99.90;;;;;;5061444;28;20645;-56
2022/03/20 05:52:52;;;;;;;3.97;2.17;;;5.80;99.90;;;;;;5069137;28;20206;-56
2022/03/20 05:58:01;;;;;;;9.02;4.32;;;5.90;99.90;;;;;;5061729;28;20205;-56
2022/03/20 05:58:15;;;;;;;2.90;2.22;;;5.90;99.90;;;;;;5069133;28;20205;-56
2022/03/20 06:00:46;;;;;;;4.70;2.40;;;5.90;99.90;;;;;;5062971;28;20216;-54
2022/03/20 06:03:17;;;;;;;3.92;2.58;;;6.00;99.90;;;;;;5074224;28;20221;-57
2022/03/20 06:05:48;;;;;;;6.15;2.50;;;6.00;99.90;;;;;;5064277;28;20611;-52
2022/03/20 06:08:21;;;;;;;3.65;2.30;;;6.00;99.90;;;;;;5063930;28;20212;-56
2022/03/20 06:10:51;;;;;;;3.75;2.22;;;6.00;99.90;;;;;;5064381;28;20217;-56
2022/03/20 06:13:24;;;;;;;5.22;3.13;;;6.00;99.90;;;;;;5054303;28;20564;-56
2022/03/20 06:15:57;;;;;;;5.07;3.40;;;6.00;99.90;;;;;;5066209;28;20208;-57
2022/03/20 06:18:28;;;;;;;9.93;7.10;;;6.00;99.90;;;;;;5064970;28;20241;-55
2022/03/20 06:20:59;;;;;;;14.95;7.53;;;6.00;99.90;;;;;;5063166;28;20198;-57
2022/03/20 06:23:32;;;;;;;9.70;6.82;;;6.00;99.90;;;;;;5064066;28;20535;-56
2022/03/20 06:26:03;;;;;;;10.02;5.70;;;5.80;99.90;;;;;;5064430;28;20225;-55
2022/03/20 06:28:35;;;;;;;8.95;5.72;;;5.80;99.90;;;;;;5062932;28;20556;-56
2022/03/20 06:31:12;;;;;;;4.80;3.58;;;5.60;99.90;;;;;;5065235;28;20198;-56
2022/03/20 06:33:59;;;;;;;4.97;3.55;;;5.60;99.90;;;;;;5068935;28;20198;-56
2022/03/20 06:36:30;;;;;;;5.55;3.55;;;5.60;99.90;;;;;;5065515;28;20618;-55
2022/03/20 06:39:01;;;;;;;3.65;2.90;;;5.60;99.90;;;;;;5063160;28;20210;-57
2022/03/20 06:41:32;;;;;;;4.47;3.20;;;5.60;99.90;;;;;;5069084;28;20206;-54
2022/03/20 06:44:05;;;;;;;3.20;2.90;;;5.60;99.90;;;;;;5062043;28;20209;-55
2022/03/20 06:46:37;;;;;;;3.72;2.90;;;5.60;99.90;;;;;;5068938;28;20260;-55
2022/03/20 06:49:09;;;;;;;5.90;3.50;;;5.60;99.90;;;;;;5063179;28;20207;-57
2022/03/20 06:51:39;;;;;;;4.93;3.65;;;5.50;99.90;;;;;;5064111;28;20186;-56
2022/03/20 06:54:10;;;;;;;3.70;3.40;;;5.50;99.90;;;;;;5064629;28;20221;-56
2022/03/20 06:56:41;;;;;;;4.75;3.40;;;5.50;99.90;;;;;;5066660;28;20206;-55
2022/03/20 06:59:15;;;;;;;6.45;3.50;;;5.40;99.90;;;;;;5066841;28;20211;-55
2022/03/20 07:01:45;;;;;;;7.50;3.25;;;5.50;99.90;;;;;;5065522;28;20603;-56
2022/03/20 07:04:16;;;;;;;6.25;3.05;;;5.50;99.90;;;;;;5066616;28;20198;-56
2022/03/20 07:06:47;;;;;;;2.42;2.33;;;5.50;99.90;;;;;;5064609;28;20225;-56
2022/03/20 07:09:18;;;;;;;4.85;3.03;;;5.50;99.90;;;;;;5063067;28;20217;-56
2022/03/20 07:11:49;;;;;;;4.05;2.92;;;5.60;99.90;;;;;;5077092;28;20198;-53
2022/03/20 07:14:21;;;;;;;5.70;3.22;;;5.70;99.90;;;;;;5062289;28;20202;-56
2022/03/20 07:16:52;;;;;;;5.57;2.88;;;5.70;99.90;;;;;;5063155;28;20198;-56
2022/03/20 07:19:23;;;;;;;5.25;3.47;;;5.90;99.90;;;;;;5062873;28;20650;-53
2022/03/20 07:21:54;;;;;;;7.13;3.10;;;5.80;99.90;;;;;;5070790;28;20202;-50
2022/03/20 07:24:25;;;;;;;5.82;3.60;;;5.90;99.90;;;;;;5068749;28;20201;-56
2022/03/20 07:29:45;;;;;;;4.85;3.42;;;6.00;99.90;;;;;;5063065;28;20218;-55
2022/03/20 07:32:16;;;;;;;4.32;3.03;;;6.10;99.90;;;;;;5066663;28;20532;-54
2022/03/20 07:34:47;;;;;;;5.90;3.05;;;6.10;99.90;;;;;;5066323;28;20266;-55
2022/03/20 07:37:19;;;;;;;4.43;3.80;;;6.30;99.90;;;;;;5063245;28;20182;-51
2022/03/20 07:39:52;;;;;;;8.55;3.50;;;6.30;99.90;;;;;;5062506;28;20326;-56
2022/03/20 07:42:26;;;;;;;4.32;3.78;;;6.50;99.90;;;;;;5069855;28;20217;-56
2022/03/20 07:44:58;;;;;;;5.22;3.10;;;6.50;99.90;;;;;;5066390;28;20213;-54
2022/03/20 07:47:29;;;;;;;5.80;3.38;;;6.40;99.90;;;;;;5063533;28;20267;-55
2022/03/20 07:50:06;;;;;;;3.65;3.25;;;6.40;99.90;;;;;;5061451;28;20197;-56
2022/03/20 07:52:38;;;;;;;4.75;3.97;;;6.50;99.90;;;;;;5062597;28;20269;-55
2022/03/20 07:55:09;;;;;;;6.18;4.38;;;6.50;99.90;;;;;;5064030;28;20304;-53
2022/03/20 07:57:43;;;;;;;4.53;3.92;;;6.40;99.90;;;;;;5067407;28;20910;-57
2022/03/20 08:00:17;;;;;;;8.77;3.90;;;6.40;99.90;;;;;;5062200;28;20205;-54
2022/03/20 08:02:48;;;;;;;5.05;4.43;;;6.40;99.90;;;;;;5071213;28;20265;-56
2022/03/20 08:05:20;;;;;;;4.40;4.00;;;6.40;99.90;;;;;;5067332;28;20216;-57
2022/03/20 08:07:51;;;;;;;5.22;3.78;;;6.50;99.90;;;;;;5062904;28;20218;-54
2022/03/20 08:10:21;;;;;;;7.68;4.20;;;6.40;99.90;;;;;;5064455;28;20206;-53
2022/03/20 08:12:52;;;;;;;6.53;4.03;;;6.40;99.90;;;;;;5061570;28;20208;-54
2022/03/20 08:15:25;;;;;;;6.55;4.50;;;6.40;99.90;;;;;;5067734;28;20194;-54
2022/03/20 08:17:55;;;;;;;10.20;3.42;;;6.30;99.90;;;;;;5060990;28;20248;-53
2022/03/20 08:20:27;;;;;;;6.30;5.47;;;6.30;99.90;;;;;;5062197;28;20236;-52
2022/03/20 08:22:58;;;;;;;5.68;3.88;;;6.30;99.90;;;;;;5061476;28;20301;-54
2022/03/20 08:25:29;;;;;;;4.70;3.22;;;6.30;99.90;;;;;;5060846;28;20205;-52
2022/03/20 08:28:00;;;;;;;14.23;5.07;;;6.30;99.90;;;;;;5060701;28;20249;-55
2022/03/20 08:30:33;;;;;;;5.30;3.80;;;6.30;99.90;;;;;;5060706;28;20212;-57
2022/03/20 08:33:04;;;;;;;6.15;4.05;;;6.40;99.90;;;;;;5066749;28;20274;-55
2022/03/20 08:35:35;;;;;;;6.78;3.80;;;6.40;99.90;;;;;;5067068;28;20196;-56
2022/03/20 08:38:06;;;;;;;3.92;3.38;;;6.30;99.90;;;;;;5071362;28;20215;-53
2022/03/20 08:40:42;;;;;;;4.78;3.58;;;6.40;99.90;;;;;;5060763;28;20585;-53
2022/03/20 08:43:15;;;;;;;2.90;2.70;;;6.30;99.90;;;;;;5066038;28;20198;-55
2022/03/20 08:45:47;;;;;;;3.65;2.55;;;6.50;99.90;;;;;;5067482;28;20212;-53
2022/03/20 08:48:19;;;;;;;3.80;2.83;;;6.50;99.90;;;;;;5061081;28;20222;-55
2022/03/20 08:50:50;;;;;;;4.35;2.35;;;6.40;99.90;;;;;;5063676;28;20193;-55
2022/03/20 08:53:22;;;;;;;4.70;2.47;;;6.30;99.90;;;;;;5062132;28;20194;-54
2022/03/20 08:55:52;;;;;;;3.80;2.35;;;6.30;99.90;;;;;;5061699;28;20205;-55
2022/03/20 08:58:23;;;;;;;4.45;2.83;;;6.30;99.90;;;;;;5061046;28;20197;-54
2022/03/20 09:00:57;;;;;;;3.78;2.75;;;6.20;99.90;;;;;;5058024;28;20206;-54
2022/03/20 09:03:29;;;;;;;2.90;2.55;;;6.20;99.90;;;;;;5065396;28;20276;-54
2022/03/20 09:06:00;;;;;;;3.50;2.50;;;6.30;99.90;;;;;;5061110;28;20693;-54
2022/03/20 09:08:31;;;;;;;3.60;3.10;;;6.30;99.90;;;;;;5060522;28;20225;-53
2022/03/20 09:11:02;;;;;;;3.35;2.40;;;6.30;99.90;;;;;;5054881;28;20212;-53
2022/03/20 09:13:33;;;;;;;3.38;2.85;;;6.20;99.90;;;;;;5068658;28;20194;-50
2022/03/20 09:19:04;;;;;;;3.25;2.70;;;6.00;99.90;;;;;;5068320;28;20254;-55
2022/03/20 09:21:37;;;;;;;2.50;2.30;;;5.90;99.90;;;;;;5062005;28;20186;-53
2022/03/20 09:24:08;;;;;;;5.97;3.97;;;5.90;99.90;;;;;;5062586;28;20198;-54
2022/03/20 09:26:39;;;;;;;2.50;2.17;;;5.90;99.90;;;;;;5064269;28;20198;-54
2022/03/20 09:29:10;;;;;;;5.53;2.45;;;6.00;99.90;;;;;;5063197;28;20237;-56
2022/03/20 09:31:42;;;;;;;3.35;2.50;;;6.00;99.90;;;;;;5061705;28;20685;-54
2022/03/20 09:34:15;;;;;;;4.50;2.78;;;6.00;99.90;;;;;;5054952;28;20260;-53
2022/03/20 09:36:46;;;;;;;4.82;2.85;;;6.10;99.90;;;;;;5064642;28;20208;-54
2022/03/20 09:39:16;;;;;;;3.53;2.80;;;6.20;99.90;;;;;;5065828;28;20204;-51
2022/03/20 09:41:49;;;;;;;6.07;2.83;;;6.10;99.90;;;;;;5065154;28;20208;-54
2022/03/20 09:44:24;;;;;;;2.50;2.30;;;6.20;99.90;;;;;;5072642;28;20208;-56
2022/03/20 09:46:57;;;;;;;4.80;2.63;;;6.10;99.90;;;;;;5066402;28;20205;-52
2022/03/20 09:49:29;;;;;;;5.82;3.17;;;6.00;99.90;;;;;;5050746;28;20213;-52
2022/03/20 09:52:00;;;;;;;4.43;2.40;;;6.00;99.90;;;;;;5066195;28;20202;-54
2022/03/20 09:54:31;;;;;;;3.28;2.53;;;5.90;99.90;;;;;;5068720;28;20198;-52
2022/03/20 09:57:05;;;;;;;5.47;2.55;;;5.80;99.90;;;;;;5074303;28;20197;-54
2022/03/20 09:59:38;;;;;;;2.28;2.08;;;5.80;99.90;;;;;;5077825;28;20208;-55
2022/03/20 10:02:12;;;;;;;2.50;2.13;;;5.80;99.90;;;;;;5075564;28;20209;-53
2022/03/20 10:04:55;;;;;;;2.78;2.47;;;5.80;99.90;;;;;;5071788;28;20209;-54
2022/03/20 10:07:27;;;;;;;4.90;2.05;;;5.90;99.90;;;;;;5060331;28;20254;-55
2022/03/20 10:10:16;;;;;;;9.35;3.03;;;5.90;99.90;;;;;;5079410;28;20192;-54
2022/03/20 10:12:51;;;;;;;3.47;2.40;;;5.90;99.90;;;;;;5070198;28;20209;-51
2022/03/20 10:15:32;;;;;;;2.55;1.95;;;6.00;99.90;;;;;;5059505;28;20214;-54
2022/03/20 10:18:11;;;;;;;2.50;2.20;;;6.00;99.90;;;;;;5063263;28;20230;-54
2022/03/20 10:20:44;;;;;;;3.15;2.50;;;6.00;99.90;;;;;;5064842;28;20209;-53
2022/03/20 10:23:32;;;;;;;6.82;2.60;;;6.10;99.90;;;;;;5072198;28;20201;-52
2022/03/20 10:26:07;;;;;;;2.50;2.30;;;6.20;99.90;;;;;;5065666;28;20209;-52
2022/03/20 10:28:39;;;;;;;4.32;3.15;;;6.20;99.90;;;;;;5055325;28;20275;-53
2022/03/20 10:31:11;;;;;;;4.25;2.55;;;6.20;99.90;;;;;;5063969;28;20644;-52
2022/03/20 10:33:46;;;;;;;4.50;2.50;;;6.30;99.90;;;;;;5063948;28;20198;-55
2022/03/20 10:36:19;;;;;;;4.15;2.38;;;6.20;99.90;;;;;;5071939;28;20206;-55
2022/03/20 10:38:51;;;;;;;3.78;1.88;;;6.30;99.90;;;;;;5070241;28;20222;-52
2022/03/20 10:41:25;;;;;;;9.68;2.35;;;6.40;99.90;;;;;;5070993;28;20208;-54
2022/03/20 10:43:57;;;;;;;2.47;2.28;;;6.20;99.90;;;;;;5063891;28;20194;-53
2022/03/20 10:46:30;;;;;;;7.40;2.63;;;6.20;99.90;;;;;;5062848;28;20201;-53
2022/03/20 10:49:05;;;;;;;2.90;2.10;;;6.30;99.90;;;;;;5067162;28;20230;-55
2022/03/20 10:51:39;;;;;;;2.05;1.90;;;6.30;99.90;;;;;;5063684;28;20217;-56
2022/03/20 10:54:11;;;;;;;2.80;1.85;;;6.20;99.90;;;;;;5076405;28;20193;-53
2022/03/20 10:56:55;;;;;;;5.10;1.85;;;6.10;99.90;;;;;;5069253;28;20210;-53
2022/03/20 10:59:26;;;;;;;3.95;1.50;;;6.10;99.90;;;;;;5071705;28;20673;-54
2022/03/20 11:01:57;;;;;;;4.78;1.83;;;6.00;99.90;;;;;;5068227;28;20217;-51
2022/03/20 11:04:31;;;;;;;1.83;1.70;;;6.10;99.90;;;;;;5063908;28;20312;-53
2022/03/20 11:07:07;;;;;;;1.80;1.70;;;6.10;99.90;;;;;;5063227;28;20213;-53
2022/03/20 11:09:37;;;;;;;8.73;1.80;;;6.00;99.90;;;;;;5072084;28;20333;-55
2022/03/20 11:12:10;;;;;;;1.77;1.55;;;6.00;99.90;;;;;;5062501;28;20570;-56
2022/03/20 11:14:44;;;;;;;3.38;2.15;;;6.00;99.90;;;;;;5065612;28;20236;-55
2022/03/20 11:17:18;;;;;;;2.35;1.90;;;6.10;99.90;;;;;;5063188;28;20238;-55
2022/03/20 11:19:54;;;;;;;2.03;1.55;;;6.00;99.90;;;;;;5068190;28;20202;-55
2022/03/20 11:22:25;;;;;;;2.30;1.60;;;6.10;99.90;;;;;;5055357;28;20215;-54
2022/03/20 11:24:57;;;;;;;5.85;1.80;;;6.10;99.90;;;;;;5052494;28;20209;-54
2022/03/20 11:27:30;;;;;;;3.38;1.58;;;6.00;99.90;;;;;;5062362;28;20207;-52
2022/03/20 11:30:04;;;;;;;5.40;1.75;;;6.10;99.90;;;;;;5062723;28;20244;-55
2022/03/20 11:32:35;;;;;;;2.10;1.70;;;6.10;99.90;;;;;;5063221;28;20185;-53
2022/03/20 11:35:09;;;;;;;4.00;1.80;;;6.10;99.90;;;;;;5063063;28;20341;-55
2022/03/20 11:37:44;;;;;;;7.25;1.77;;;6.10;99.90;;;;;;5062964;28;20289;-54
2022/03/20 11:40:20;;;;;;;2.15;1.45;;;6.10;99.90;;;;;;5070379;28;20208;-53
2022/03/20 11:42:52;;;;;;;3.75;2.00;;;6.10;99.90;;;;;;5057302;28;20219;-53
2022/03/20 11:45:24;;;;;;;3.03;1.88;;;6.00;99.90;;;;;;5062997;28;20278;-53
2022/03/20 11:48:14;;;;;;;3.60;2.00;;;5.90;99.90;;;;;;5062923;28;20198;-55
2022/03/20 11:50:52;;;;;;;2.35;1.77;;;5.90;99.90;;;;;;5051945;28;20674;-52
2022/03/20 11:53:29;;;;;;;3.45;2.08;;;5.90;99.90;;;;;;5071007;28;20194;-53
2022/03/20 11:56:00;;;;;;;3.72;2.42;;;5.80;99.90;;;;;;5065534;28;20210;-54
2022/03/20 11:58:38;;;;;;;2.45;1.88;;;5.80;99.90;;;;;;5068789;28;20255;-53
2022/03/20 12:01:12;;;;;;;3.53;2.60;;;5.90;99.90;;;;;;5061848;28;20372;-53
2022/03/20 12:03:53;;;;;;;3.03;2.08;;;5.90;99.90;;;;;;5071748;28;20315;-52
2022/03/20 12:06:54;;;;;;;4.38;1.80;;;5.90;99.90;;;;;;5067045;28;20277;-53
2022/03/20 12:09:51;;;;;;;3.75;2.50;;;6.00;99.90;;;;;;5053801;28;20228;-54
2022/03/20 12:12:55;;;;;;;2.17;1.98;;;6.00;99.90;;;;;;5061812;28;20294;-50
2022/03/20 12:15:29;;;;;;;3.88;2.45;;;6.00;99.90;;;;;;5069346;28;20189;-57
2022/03/20 12:18:02;;;;;;;7.32;2.28;;;6.10;99.90;;;;;;5067302;28;20713;-50
2022/03/20 12:21:04;;;;;;;3.70;2.47;;;6.10;99.90;;;;;;5062495;28;20206;-56
2022/03/20 12:23:39;;;;;;;2.05;1.60;;;6.20;99.90;;;;;;5064896;28;20201;-55
2022/03/20 12:26:31;;;;;;;4.70;2.40;;;6.20;99.90;;;;;;5062300;28;20304;-55
2022/03/20 12:29:38;;;;;;;3.22;2.63;;;6.10;99.90;;;;;;5058308;28;20253;-54
2022/03/20 12:32:12;;;;;;;4.28;2.22;;;6.20;99.90;;;;;;5058770;28;20285;-52
2022/03/20 12:34:44;;;;;;;3.13;2.30;;;6.20;99.90;;;;;;5061601;28;20211;-57
2022/03/20 12:37:37;;;;;;;1.98;1.88;;;6.10;99.90;;;;;;5063966;28;20682;-53
2022/03/20 12:40:12;;;;;;;5.72;2.05;;;6.10;99.90;;;;;;5065579;28;20647;-57
2022/03/20 12:43:07;;;;;;;3.10;2.10;;;6.10;99.90;;;;;;5062806;28;20625;-54
2022/03/20 12:45:41;;;;;;;3.72;1.92;;;6.10;99.90;;;;;;5064949;28;20186;-56
2022/03/20 12:48:13;;;;;;;2.60;1.92;;;6.10;99.90;;;;;;5062352;28;20628;-56
2022/03/20 12:50:46;;;;;;;4.00;2.75;;;6.20;99.90;;;;;;5061341;28;20285;-53
2022/03/20 12:53:19;;;;;;;4.20;1.90;;;6.10;99.90;;;;;;5067169;28;20269;-54
2022/03/20 12:55:58;;;;;;;3.50;2.10;;;6.10;99.90;;;;;;5064998;28;20213;-56
2022/03/20 12:58:30;;;;;;;2.97;2.60;;;6.20;99.90;;;;;;5064452;28;20211;-54
2022/03/20 13:01:01;;;;;;;3.58;1.92;;;6.20;99.90;;;;;;5061282;28;20222;-55
2022/03/20 13:03:33;;;;;;;2.90;2.30;;;6.20;99.90;;;;;;5068922;28;20591;-55
2022/03/20 13:06:04;;;;;;;3.35;2.28;;;6.10;99.90;;;;;;5068362;28;20307;-54
2022/03/20 13:08:36;;;;;;;4.82;1.60;;;6.10;99.90;;;;;;5061346;28;20273;-55
2022/03/20 13:11:48;;;;;;;2.55;2.13;;;6.00;99.90;;;;;;5068278;28;20225;-54
2022/03/20 13:14:12;;;;;;;2.90;1.50;;;6.00;99.90;;;;;;5075835;28;20207;-55
2022/03/20 13:16:51;;;;;;;3.45;1.77;;;5.90;99.90;;;;;;5073538;28;20208;-53
2022/03/20 13:19:30;;;;;;;5.55;1.58;;;5.80;99.90;;;;;;5065340;28;20198;-56
2022/03/20 13:22:04;;;;;;;3.20;2.35;;;5.70;99.90;;;;;;5066185;28;20533;-56
2022/03/20 13:24:36;;;;;;;2.30;2.10;;;5.60;99.90;;;;;;5066681;28;20201;-56
2022/03/20 13:27:10;;;;;;;2.28;2.03;;;5.40;99.90;;;;;;5065510;28;20205;-56
2022/03/20 13:29:51;;;;;;;3.75;1.98;;;5.40;99.90;;;;;;5065159;28;20251;-52
2022/03/20 13:32:22;;;;;;;3.40;1.90;;;5.40;99.90;;;;;;5064999;28;20202;-53
2022/03/20 13:34:53;;;;;;;4.50;1.85;;;5.40;99.90;;;;;;5064379;28;20224;-55
2022/03/20 13:37:24;;;;;;;3.00;2.00;;;5.40;99.90;;;;;;5065348;28;20186;-54
2022/03/20 13:39:57;;;;;;;2.65;1.90;;;5.30;99.90;;;;;;5070848;28;20197;-56
2022/03/20 13:42:30;;;;;;;2.33;1.90;;;5.30;99.90;;;;;;5068564;28;20202;-54
2022/03/20 13:45:02;;;;;;;4.22;2.20;;;5.30;99.90;;;;;;5078982;28;20202;-56
2022/03/20 13:47:33;;;;;;;3.20;1.90;;;5.30;99.90;;;;;;5066745;28;20232;-52
2022/03/20 13:50:06;;;;;;;3.55;1.77;;;5.30;99.90;;;;;;5070399;28;20229;-55
2022/03/20 13:52:37;;;;;;;3.05;1.70;;;5.20;99.90;;;;;;5071323;28;20224;-51
2022/03/20 13:55:10;;;;;;;4.05;2.90;;;5.10;99.90;;;;;;5065303;28;20201;-56